METAR Data
IDs: Format: Raw Decoded Include TAF

Data at: 1229 UTC 07 Jul 2020

KORH 071207Z 21004KT 10SM SCT010 SCT090 18/14 A3020 RMK AO2 T01830144
KORH 071154Z 19004KT 10SM BKN008 BKN090 18/14 A3020 RMK AO2 SLP222 T01830144 10183 20167 51008
KORH 071054Z 22005KT 10SM BKN006 BKN065 17/14 A3019 RMK AO2 SLP219 T01670144
KORH 070954Z COR 23006KT 10SM BKN005 BKN065 17/15 A3019 RMK AO2 SLP218 T01670150
KORH 070854Z AUTO 20005KT 10SM FEW005 SCT045 BKN070 17/16 A3017 RMK AO2 SLP214 T01720156 53001
KORH 070807Z AUTO 21005KT 10SM FEW007 BKN085 17/16 A3017 RMK AO2 T01720156
KORH 070754Z AUTO 22005KT 10SM FEW090 17/16 A3017 RMK AO2 SLP213 T01720156
KORH 070654Z AUTO 20003KT 10SM CLR 18/16 A3016 RMK AO2 SLP208 T01780161
KORH 070554Z AUTO 23005KT 10SM FEW006 BKN041 BKN055 18/16 A3017 RMK AO2 SLP212 T01830156 10222 20183 50002
KORH 070533Z AUTO 22004KT 10SM FEW006 OVC043 19/16 A3017 RMK AO2 T01890156
KORH 070454Z AUTO 21006KT 10SM OVC041 19/14 A3018 RMK AO2 SLP215 T01940144 402670178
KORH 070354Z AUTO 18005KT 10SM FEW060 OVC095 19/14 A3017 RMK AO2 SLP212 T01940139
KORH 070254Z AUTO 15006KT 10SM BKN043 OVC065 21/14 A3017 RMK AO2 SLP211 T02060139 51011
KORH 070154Z AUTO 12004KT 10SM FEW049 BKN065 21/14 A3016 RMK AO2 SLP209 LAST AUGMENTED OBS T02110139
KORH 070054Z 15006KT 10SM OVC055 21/14 A3015 RMK AO2 SLP207 T02110139
KORH 062354Z 12004KT 10SM CLR 22/12 A3013 RMK AO2 SLP201 T02220122 10267 20222 50007
KORH 062254Z 12009KT 10SM CLR 23/12 A3013 RMK AO2 SLP201 T02330122
KORH 062209Z 11008KT 10SM SCT026 23/16 A3012 RMK AO2 T02330161
KORH 062154Z 10008KT 10SM BKN026 24/17 A3012 RMK AO2 SLP196 T02390167
KORH 062054Z 10007KT 10SM SCT031 24/17 A3011 RMK AO2 SLP193 T02440167 55001
KORH 061954Z AUTO 08005KT 10SM BKN035 BKN055 25/17 A3010 RMK AO2 SLP187 T02500167
KORH 061854Z 05006KT 10SM SCT046 27/16 A3010 RMK AO2 SLP189 T02670161
KORH 061754Z VRB03KT 10SM BKN032 26/16 A3011 RMK AO2 SLP193 T02560161 10256 20178 50002
KORH 061740Z 03007KT 360V060 10SM BKN032 26/17 A3011 RMK AO2 T02560167
KORH 061654Z VRB06KT 10SM BKN026 24/17 A3011 RMK AO2 SLP193 T02440167
KORH 061631Z VRB06KT 10SM SCT024 SCT030 24/17 A3012 RMK AO2 T02440167
KORH 061554Z 07006KT 10SM BKN020 23/17 A3012 RMK AO2 SLP194 T02330167
KORH 061546Z 08007KT 040V120 10SM BKN020 23/17 A3012 RMK AO2 T02280167
KORH 061454Z COR 06007KT 10SM SCT016 23/17 A3011 RMK AO2 SLP190 T02280167 51013
KORH 061407Z 03009KT 10SM BKN011 22/17 A3009 RMK AO2 T02170167
KORH 061354Z COR 04006KT 10SM BKN011 22/17 A3009 RMK AO2 SLP186 T02170167
KORH 061254Z 02005KT 10SM OVC005 19/17 A3008 RMK AO2 CIG 004V009 SLP183 T01940167
KORH 061222Z 04006KT 3SM R11/2200VP6000FT BR OVC002 18/17 A3008 RMK AO2 T01780167
KORH 061218Z 03004KT 1SM R11/2200VP6000FT BR VV002 18/17 A3008 RMK AO2 T01780172
KORH 061154Z 03007KT 1/4SM R11/P6000FT FG VV002 18/17 A3007 RMK AO2 SLP178 T01780167 10206 20178 53019
KORH 061147Z 03007KT 1/2SM R11/P6000FT FG VV002 18/17 A3006 RMK AO2 VIS 1/4V5 T01780167
KORH 061144Z 04008KT 1 3/4SM BR SCT002 18/17 A3006 RMK AO2 VIS 1/2V5 T01830167
KORH 061141Z 04006KT 7SM OVC005 19/17 A3006 RMK AO2 T01890167
KORH 061054Z 05003KT 10SM CLR 20/16 A3005 RMK AO2 SLP169 T02000161
KORH 060954Z COR 05004KT 10SM CLR 18/16 A3003 RMK AO2 SLP162 T01830161
KORH 060854Z AUTO 02006KT 10SM CLR 18/16 A3001 RMK AO2 SLP156 T01830156 53006
KORH 060754Z AUTO 01003KT 10SM CLR 19/14 A2999 RMK AO2 SLP151 T01940139
KORH 060654Z AUTO 26003KT 10SM CLR 19/14 A2999 RMK AO2 SLP150 T01890144
KORH 060554Z AUTO 00000KT 10SM CLR 18/15 A2999 RMK AO2 SLP150 T01830150 10256 20183 50000
KORH 060454Z AUTO 36003KT 10SM CLR 21/16 A2999 RMK AO2 SLP149 T02110156 402940183
KORH 060354Z AUTO 03005KT 10SM CLR 21/16 A2999 RMK AO2 LTG DSNT E AND SE SLP151 T02110156
KORH 060254Z AUTO 02006G18KT 10SM FEW019 BKN060 BKN075 22/17 A2999 RMK AO2 LTG DSNT E SLP150 T02220167 53016
KORH 060154Z AUTO 26006KT 10SM CLR 23/16 A2995 RMK AO2 LTG DSNT NE AND E SLP138 T02330156
KORH 060054Z 26006KT 10SM FEW070 FEW090 25/16 A2994 RMK AO2 LTG DSNT N SLP135 T02500156